Time;durP1;ratioP1;P1;durP2;ratioP2;P2;SDS_P1;SDS_P2;PMS_P1;PMS_P2;Temp;Humidity;BMP_temperature;BMP_pressure;BME280_temperature;BME280_humidity;BME280_pressure;Samples;Min_cycle;Max_cycle;Signal;HPM_P1;HPM_P2
2023/02/09 00:02:07;;;;;;;3.42;3.30;;;;;;;;;;4989301;28;20057;-91
2023/02/09 00:04:34;;;;;;;2.75;2.65;;;;;;;;;;4988963;28;20518;-91
2023/02/09 00:07:01;;;;;;;9.15;7.47;;;;;;;;;;4994631;28;20058;-92
2023/02/09 00:09:27;;;;;;;2.15;2.05;;;;;;;;;;4995008;28;20042;-92
2023/02/09 00:14:39;;;;;;;2.40;2.30;;;;;;;;;;4994760;28;20140;-92
2023/02/09 00:17:06;;;;;;;2.53;2.42;;;;;;;;;;4995433;28;20096;-92
2023/02/09 00:19:32;;;;;;;2.47;2.38;;;;;;;;;;4993864;28;20054;-92
2023/02/09 00:21:59;;;;;;;2.75;2.65;;;;;;;;;;4977495;28;20053;-92
2023/02/09 00:24:25;;;;;;;2.65;2.55;;;;;;;;;;4975352;28;20056;-91
2023/02/09 00:26:52;;;;;;;4.57;4.38;;;;;;;;;;4975607;28;20054;-92
2023/02/09 00:29:21;;;;;;;2.05;1.95;;;;;;;;;;4974929;28;20051;-91
2023/02/09 00:31:47;;;;;;;2.08;1.98;;;;;;;;;;4974899;28;20055;-92
2023/02/09 00:34:14;;;;;;;2.25;2.15;;;;;;;;;;4975460;28;20068;-92
2023/02/09 00:36:40;;;;;;;2.58;2.47;;;;;;;;;;4979660;28;20108;-92
2023/02/09 00:39:07;;;;;;;1.88;1.77;;;;;;;;;;4994838;28;20080;-93
2023/02/09 00:44:18;;;;;;;1.02;1.02;;;;;;;;;;4994755;28;20470;-92
2023/02/09 00:46:46;;;;;;;3.20;3.10;;;;;;;;;;4994771;28;20100;-93
2023/02/09 00:49:13;;;;;;;3.25;3.15;;;;;;;;;;4994320;28;20082;-92
2023/02/09 00:51:39;;;;;;;2.40;2.30;;;;;;;;;;4994819;28;20058;-93
2023/02/09 00:54:06;;;;;;;2.63;2.53;;;;;;;;;;4992529;28;20101;-92
2023/02/09 00:56:33;;;;;;;1.98;1.88;;;;;;;;;;4994480;28;20054;-91
2023/02/09 00:58:59;;;;;;;2.33;2.22;;;;;;;;;;4994621;28;20073;-92
2023/02/09 01:01:26;;;;;;;3.60;3.50;;;;;;;;;;4994331;28;20054;-92
2023/02/09 01:03:53;;;;;;;2.70;2.60;;;;;;;;;;4995289;28;20046;-91
2023/02/09 01:06:20;;;;;;;2.83;2.72;;;;;;;;;;4994566;28;20058;-92
2023/02/09 01:08:47;;;;;;;5.82;5.32;;;;;;;;;;4994643;28;20053;-92
2023/02/09 01:11:14;;;;;;;2.15;2.05;;;;;;;;;;4993489;28;20054;-92
2023/02/09 01:13:41;;;;;;;2.33;2.22;;;;;;;;;;4976922;28;20077;-92
2023/02/09 01:16:08;;;;;;;2.75;2.65;;;;;;;;;;4974488;28;20062;-93
2023/02/09 01:18:35;;;;;;;2.22;2.13;;;;;;;;;;4974933;28;20043;-91
2023/02/09 01:21:03;;;;;;;3.40;3.30;;;;;;;;;;4974930;28;20043;-92
2023/02/09 01:23:31;;;;;;;2.13;2.03;;;;;;;;;;4974761;28;20055;-92
2023/02/09 01:26:01;;;;;;;8.68;8.13;;;;;;;;;;4974800;28;20054;-92
2023/02/09 01:28:27;;;;;;;1.88;1.77;;;;;;;;;;4975146;28;20097;-92
2023/02/09 01:30:54;;;;;;;2.58;2.47;;;;;;;;;;4990318;28;20049;-91
2023/02/09 01:33:20;;;;;;;3.20;3.10;;;;;;;;;;4994402;28;20046;-91
2023/02/09 01:35:47;;;;;;;3.60;3.42;;;;;;;;;;4993986;28;20055;-91
2023/02/09 01:38:15;;;;;;;2.78;2.67;;;;;;;;;;4994453;28;20125;-92
2023/02/09 01:40:46;;;;;;;2.30;2.20;;;;;;;;;;4993485;28;20053;-91
2023/02/09 01:43:13;;;;;;;2.78;2.67;;;;;;;;;;4994285;28;20063;-91
2023/02/09 01:45:43;;;;;;;3.03;2.92;;;;;;;;;;4996826;28;20054;-92
2023/02/09 01:48:10;;;;;;;2.97;2.88;;;;;;;;;;4996295;28;20086;-91
2023/02/09 01:50:38;;;;;;;1.83;1.73;;;;;;;;;;4997413;28;20047;-92
2023/02/09 01:53:05;;;;;;;2.13;2.03;;;;;;;;;;4998622;28;20046;-92
2023/02/09 01:55:35;;;;;;;1.67;1.58;;;;;;;;;;4996877;28;20109;-92
2023/02/09 01:58:04;;;;;;;2.15;2.05;;;;;;;;;;4997092;28;20112;-92
2023/02/09 02:00:31;;;;;;;2.00;1.90;;;;;;;;;;4997212;28;20105;-92
2023/02/09 02:02:59;;;;;;;3.03;2.92;;;;;;;;;;4997850;28;20105;-92
2023/02/09 02:05:26;;;;;;;2.70;2.58;;;;;;;;;;4996433;28;20061;-91
2023/02/09 02:07:57;;;;;;;2.22;2.13;;;;;;;;;;4996738;28;20101;-91
2023/02/09 02:10:24;;;;;;;4.60;4.18;;;;;;;;;;4996901;28;20108;-91
2023/02/09 02:12:53;;;;;;;4.57;4.28;;;;;;;;;;4996409;28;20556;-91
2023/02/09 02:15:19;;;;;;;2.35;2.25;;;;;;;;;;4997027;28;20054;-91
2023/02/09 02:17:54;;;;;;;2.92;2.83;;;;;;;;;;4996297;28;20046;-91
2023/02/09 02:20:30;;;;;;;2.55;2.45;;;;;;;;;;4996416;28;20046;-91
2023/02/09 02:23:00;;;;;;;4.55;4.35;;;;;;;;;;4996046;28;20553;-91
2023/02/09 02:25:56;;;;;;;4.20;4.00;;;;;;;;;;4996983;28;20112;-91
2023/02/09 02:28:32;;;;;;;3.53;3.42;;;;;;;;;;4917355;29;20108;-91
2023/02/09 02:31:16;;;;;;;2.05;1.95;;;;;;;;;;4917564;29;20121;-91
2023/02/09 02:33:45;;;;;;;5.10;4.88;;;;;;;;;;4917534;29;20056;-91
2023/02/09 02:36:17;;;;;;;1.98;1.88;;;;;;;;;;4914592;29;20670;-90
2023/02/09 02:38:48;;;;;;;2.75;2.65;;;;;;;;;;4915751;29;20108;-91
2023/02/09 02:41:18;;;;;;;2.55;2.45;;;;;;;;;;4917251;29;20084;-92
2023/02/09 02:43:51;;;;;;;3.15;3.05;;;;;;;;;;4917329;29;20056;-91
2023/02/09 02:46:20;;;;;;;2.85;2.75;;;;;;;;;;4917041;29;20056;-91
2023/02/09 02:48:52;;;;;;;2.63;2.53;;;;;;;;;;4917057;29;20055;-91
2023/02/09 02:51:23;;;;;;;3.08;2.95;;;;;;;;;;4916724;29;20059;-90
2023/02/09 02:53:52;;;;;;;3.42;3.25;;;;;;;;;;4915750;29;20055;-91
2023/02/09 02:56:21;;;;;;;3.03;2.92;;;;;;;;;;4913491;29;20056;-91
2023/02/09 02:58:49;;;;;;;2.55;2.45;;;;;;;;;;4917036;29;20583;-91
2023/02/09 03:01:17;;;;;;;4.10;3.90;;;;;;;;;;4916757;29;20184;-92
2023/02/09 03:03:45;;;;;;;2.47;2.38;;;;;;;;;;4994759;28;20050;-91
2023/02/09 03:06:13;;;;;;;3.00;2.90;;;;;;;;;;4995864;28;20053;-91
2023/02/09 03:08:51;;;;;;;3.33;3.20;;;;;;;;;;4995872;28;20058;-91
2023/02/09 03:11:18;;;;;;;3.10;2.97;;;;;;;;;;4993279;28;20053;-92
2023/02/09 03:13:50;;;;;;;1.17;1.17;;;;;;;;;;4976661;28;20468;-91
2023/02/09 03:16:20;;;;;;;4.97;4.78;;;;;;;;;;4976431;28;20109;-91
2023/02/09 03:18:54;;;;;;;2.88;2.78;;;;;;;;;;4976431;28;20114;-91
2023/02/09 03:21:25;;;;;;;2.40;2.30;;;;;;;;;;4976395;28;20106;-91
2023/02/09 03:23:55;;;;;;;2.28;2.17;;;;;;;;;;4975840;28;20102;-90
2023/02/09 03:26:25;;;;;;;1.10;1.10;;;;;;;;;;4976262;28;20396;-91
2023/02/09 03:28:53;;;;;;;2.92;2.83;;;;;;;;;;4976116;28;20491;-92
2023/02/09 03:31:20;;;;;;;2.08;1.98;;;;;;;;;;4995036;28;20101;-92
2023/02/09 03:33:47;;;;;;;2.97;2.88;;;;;;;;;;4995602;28;20046;-92
2023/02/09 03:36:15;;;;;;;2.45;2.35;;;;;;;;;;4996100;28;20109;-92
2023/02/09 03:38:43;;;;;;;1.08;1.08;;;;;;;;;;4995400;28;20470;-92
2023/02/09 03:41:09;;;;;;;3.60;3.50;;;;;;;;;;4995753;28;20058;-92
2023/02/09 03:46:19;;;;;;;2.08;1.98;;;;;;;;;;4994489;28;20434;-92
2023/02/09 03:48:46;;;;;;;2.30;2.20;;;;;;;;;;4994324;28;20051;-92
2023/02/09 03:51:13;;;;;;;2.53;2.42;;;;;;;;;;4995385;28;20073;-92
2023/02/09 03:53:40;;;;;;;0.60;0.60;;;;;;;;;;4995368;28;20447;-91
2023/02/09 03:56:09;;;;;;;5.57;5.38;;;;;;;;;;4995206;28;20053;-91
2023/02/09 03:58:36;;;;;;;1.08;1.08;;;;;;;;;;4994634;28;20454;-91
2023/02/09 04:01:04;;;;;;;3.35;3.20;;;;;;;;;;4994917;28;20088;-91
2023/02/09 04:03:31;;;;;;;2.67;2.58;;;;;;;;;;4993804;28;20598;-91
2023/02/09 04:05:57;;;;;;;2.70;2.60;;;;;;;;;;4990785;28;20053;-91
2023/02/09 04:08:24;;;;;;;2.53;2.42;;;;;;;;;;4995171;28;20053;-91
2023/02/09 04:10:50;;;;;;;1.52;1.50;;;;;;;;;;4995227;28;20124;-92
2023/02/09 04:13:18;;;;;;;2.90;2.80;;;;;;;;;;4995394;28;20050;-90
2023/02/09 04:15:45;;;;;;;3.08;2.97;;;;;;;;;;4995200;28;20392;-92
2023/02/09 04:18:11;;;;;;;2.20;2.10;;;;;;;;;;4995130;28;20050;-92
2023/02/09 04:20:38;;;;;;;4.68;4.38;;;;;;;;;;4994991;28;20050;-91
2023/02/09 04:23:05;;;;;;;2.63;2.53;;;;;;;;;;4985712;28;20119;-92
2023/02/09 04:25:31;;;;;;;2.97;2.88;;;;;;;;;;4980188;28;20507;-92
2023/02/09 04:27:58;;;;;;;1.38;1.38;;;;;;;;;;4979320;28;20514;-91
2023/02/09 04:30:26;;;;;;;4.05;3.72;;;;;;;;;;4978682;28;20443;-92
2023/02/09 04:32:52;;;;;;;2.33;2.22;;;;;;;;;;4976272;28;20043;-92
2023/02/09 04:35:19;;;;;;;2.72;2.63;;;;;;;;;;4975251;28;20051;-90
2023/02/09 04:37:45;;;;;;;2.72;2.63;;;;;;;;;;4975818;28;20101;-91
2023/02/09 04:40:12;;;;;;;2.47;2.38;;;;;;;;;;4981122;28;20499;-91
2023/02/09 04:42:38;;;;;;;2.83;2.72;;;;;;;;;;4975633;28;20046;-92
2023/02/09 04:45:06;;;;;;;2.45;2.35;;;;;;;;;;4975215;28;20062;-91
2023/02/09 04:47:34;;;;;;;0.70;0.70;;;;;;;;;;4975566;28;20588;-93
2023/02/09 04:50:00;;;;;;;2.88;2.78;;;;;;;;;;4974558;28;20054;-91
2023/02/09 04:52:27;;;;;;;3.42;3.33;;;;;;;;;;4975348;28;20047;-90
2023/02/09 04:54:53;;;;;;;2.92;2.83;;;;;;;;;;4978191;28;20046;-91
2023/02/09 05:00:04;;;;;;;3.55;3.38;;;;;;;;;;4994844;28;20104;-92
2023/02/09 05:02:30;;;;;;;2.22;2.13;;;;;;;;;;4994703;28;20093;-91
2023/02/09 05:04:58;;;;;;;1.95;1.85;;;;;;;;;;4994723;28;20050;-92
2023/02/09 05:07:25;;;;;;;3.65;3.55;;;;;;;;;;4997168;28;20054;-91
2023/02/09 05:09:53;;;;;;;2.10;2.00;;;;;;;;;;4997421;28;20081;-91
2023/02/09 05:12:19;;;;;;;2.22;2.13;;;;;;;;;;4993972;28;20105;-91
2023/02/09 05:14:46;;;;;;;2.20;2.10;;;;;;;;;;4994911;28;20050;-91
2023/02/09 05:17:12;;;;;;;4.50;4.28;;;;;;;;;;4995579;28;20105;-91
2023/02/09 05:19:39;;;;;;;2.55;2.45;;;;;;;;;;4996838;28;20073;-90
2023/02/09 05:22:07;;;;;;;4.93;4.60;;;;;;;;;;4998842;28;20108;-92
2023/02/09 05:24:33;;;;;;;5.60;5.38;;;;;;;;;;4997986;28;20046;-92
2023/02/09 05:27:00;;;;;;;4.13;3.90;;;;;;;;;;4998425;28;20105;-91
2023/02/09 05:29:26;;;;;;;6.03;4.53;;;;;;;;;;4996562;28;20046;-92
2023/02/09 05:31:53;;;;;;;3.47;3.38;;;;;;;;;;4997988;28;20057;-92
2023/02/09 05:34:19;;;;;;;4.95;4.75;;;;;;;;;;4998149;28;20050;-91
2023/02/09 05:36:46;;;;;;;2.15;2.05;;;;;;;;;;4997740;28;20058;-91
2023/02/09 05:39:14;;;;;;;2.25;2.15;;;;;;;;;;4998206;28;20051;-92
2023/02/09 05:44:25;;;;;;;2.38;2.28;;;;;;;;;;4998295;28;20133;-92
2023/02/09 05:46:51;;;;;;;2.58;2.47;;;;;;;;;;4996479;28;20050;-91
2023/02/09 05:49:18;;;;;;;2.30;2.20;;;;;;;;;;4997704;28;20054;-91
2023/02/09 05:51:44;;;;;;;1.52;1.50;;;;;;;;;;4997030;28;20561;-91
2023/02/09 05:54:11;;;;;;;4.97;3.35;;;;;;;;;;4997671;28;20065;-92
2023/02/09 05:56:39;;;;;;;2.95;2.85;;;;;;;;;;4997842;28;20463;-91
2023/02/09 05:59:06;;;;;;;5.18;4.88;;;;;;;;;;4997756;28;20053;-91
2023/02/09 06:01:33;;;;;;;2.13;2.03;;;;;;;;;;4997440;28;20050;-91
2023/02/09 06:03:59;;;;;;;2.28;2.17;;;;;;;;;;4996814;28;20685;-92
2023/02/09 06:06:26;;;;;;;1.60;1.50;;;;;;;;;;4997699;28;20109;-92
2023/02/09 06:08:52;;;;;;;2.22;2.13;;;;;;;;;;4998007;28;20054;-92
2023/02/09 06:11:19;;;;;;;2.70;2.60;;;;;;;;;;4997275;28;20482;-91
2023/02/09 06:13:47;;;;;;;2.83;2.72;;;;;;;;;;4997782;28;20057;-92
2023/02/09 06:16:13;;;;;;;1.75;1.65;;;;;;;;;;4997051;28;20556;-92
2023/02/09 06:18:40;;;;;;;1.38;1.35;;;;;;;;;;4997152;28;20097;-92
2023/02/09 06:21:07;;;;;;;29.83;10.15;;;;;;;;;;4996054;28;20058;-93
2023/02/09 06:23:33;;;;;;;1.85;1.75;;;;;;;;;;4992799;28;20388;-92
2023/02/09 06:26:00;;;;;;;2.42;2.33;;;;;;;;;;4997500;28;20051;-92
2023/02/09 06:28:26;;;;;;;2.22;2.13;;;;;;;;;;4991858;28;20057;-93
2023/02/09 06:30:54;;;;;;;3.28;3.17;;;;;;;;;;4996397;28;20042;-92
2023/02/09 06:33:21;;;;;;;3.20;3.10;;;;;;;;;;4995976;28;20104;-92
2023/02/09 06:35:47;;;;;;;1.10;1.10;;;;;;;;;;4994115;28;20398;-92
2023/02/09 06:38:14;;;;;;;4.68;4.28;;;;;;;;;;4995045;28;20046;-92
2023/02/09 06:40:40;;;;;;;4.43;4.18;;;;;;;;;;4996215;28;20100;-92
2023/02/09 06:43:07;;;;;;;4.45;4.15;;;;;;;;;;4992022;28;20549;-90
2023/02/09 06:45:33;;;;;;;2.45;2.35;;;;;;;;;;4975917;28;20494;-92
2023/02/09 06:48:01;;;;;;;2.25;2.15;;;;;;;;;;4976690;28;20110;-92
2023/02/09 06:50:28;;;;;;;2.42;2.33;;;;;;;;;;4976207;28;20059;-91
2023/02/09 06:52:54;;;;;;;3.00;2.80;;;;;;;;;;4976058;28;20050;-91
2023/02/09 06:55:21;;;;;;;2.05;1.95;;;;;;;;;;4979250;28;20097;-91
2023/02/09 06:57:47;;;;;;;4.20;3.90;;;;;;;;;;4995180;28;20061;-91
2023/02/09 07:00:14;;;;;;;0.47;0.47;;;;;;;;;;4995733;28;20418;-92
2023/02/09 07:16:32;;;;;;;2.13;2.03;;;;;;;;;;5084911;27;21096;-88
2023/02/09 07:18:59;;;;;;;0.88;0.88;;;;;;;;;;5088275;28;20109;-88
2023/02/09 07:21:25;;;;;;;1.60;1.50;;;;;;;;;;5088275;28;20123;-86
2023/02/09 07:23:52;;;;;;;2.08;1.98;;;;;;;;;;5087880;28;20094;-86
2023/02/09 07:26:18;;;;;;;1.38;1.33;;;;;;;;;;5087788;28;20082;-86
2023/02/09 07:28:45;;;;;;;3.05;2.85;;;;;;;;;;5090133;28;20048;-86
2023/02/09 07:31:12;;;;;;;1.77;1.67;;;;;;;;;;5088655;28;20044;-88
2023/02/09 07:33:40;;;;;;;4.20;3.92;;;;;;;;;;5087861;28;20048;-86
2023/02/09 07:36:08;;;;;;;1.02;1.02;;;;;;;;;;5087662;28;20508;-87
2023/02/09 07:38:35;;;;;;;2.50;1.73;;;;;;;;;;5088358;28;20052;-86
2023/02/09 07:41:02;;;;;;;1.52;1.10;;;;;;;;;;5088197;28;20114;-86
2023/02/09 07:43:29;;;;;;;2.80;2.70;;;;;;;;;;5088052;28;20055;-87
2023/02/09 07:45:59;;;;;;;1.85;1.75;;;;;;;;;;5087201;28;20694;-88
2023/02/09 07:48:25;;;;;;;4.20;2.88;;;;;;;;;;5079427;28;20051;-86
2023/02/09 07:53:37;;;;;;;5.60;5.07;;;;;;;;;;5087711;28;20109;-87
2023/02/09 07:56:05;;;;;;;7.70;7.20;;;;;;;;;;5084752;28;20044;-86
2023/02/09 07:58:31;;;;;;;3.45;2.95;;;;;;;;;;5079085;28;20493;-86
2023/02/09 08:01:02;;;;;;;5.70;4.45;;;;;;;;;;5078441;28;20098;-86
2023/02/09 08:03:29;;;;;;;4.25;4.05;;;;;;;;;;5078470;28;20095;-87
2023/02/09 08:06:00;;;;;;;1.15;1.15;;;;;;;;;;5086274;28;20094;-86
2023/02/09 08:08:26;;;;;;;3.30;3.10;;;;;;;;;;5084933;28;20059;-86
2023/02/09 08:10:53;;;;;;;3.38;3.22;;;;;;;;;;5079896;28;20048;-87
2023/02/09 08:13:19;;;;;;;3.35;3.25;;;;;;;;;;5085383;28;20044;-87
2023/02/09 08:15:48;;;;;;;12.35;11.48;;;;;;;;;;5075451;28;20447;-87
2023/02/09 08:18:16;;;;;;;1.40;1.30;;;;;;;;;;5074124;28;20052;-87
2023/02/09 08:20:44;;;;;;;6.30;6.00;;;;;;;;;;5073644;28;20040;-88
2023/02/09 08:23:15;;;;;;;4.63;4.30;;;;;;;;;;5074153;28;20044;-88
2023/02/09 08:25:41;;;;;;;4.70;4.50;;;;;;;;;;5074345;28;20083;-88
2023/02/09 08:28:08;;;;;;;7.78;7.25;;;;;;;;;;5081100;28;20052;-88
2023/02/09 08:30:35;;;;;;;4.07;3.15;;;;;;;;;;5084139;28;20094;-90
2023/02/09 08:33:01;;;;;;;4.13;3.75;;;;;;;;;;5071210;28;20059;-88
2023/02/09 08:35:28;;;;;;;3.10;2.95;;;;;;;;;;5072415;28;20056;-88
2023/02/09 08:37:54;;;;;;;1.60;1.50;;;;;;;;;;5074360;28;20471;-88
2023/02/09 08:40:22;;;;;;;4.18;3.97;;;;;;;;;;5074246;28;20113;-88
2023/02/09 08:42:49;;;;;;;5.15;4.85;;;;;;;;;;5074482;28;20106;-88
2023/02/09 08:45:15;;;;;;;3.22;3.13;;;;;;;;;;5073993;28;20486;-89
2023/02/09 08:47:42;;;;;;;3.58;3.38;;;;;;;;;;5074104;28;20040;-89
2023/02/09 08:50:09;;;;;;;7.45;7.10;;;;;;;;;;5073989;28;20090;-89
2023/02/09 08:52:35;;;;;;;12.20;5.05;;;;;;;;;;5074493;28;20381;-88
2023/02/09 08:55:02;;;;;;;3.90;3.70;;;;;;;;;;5073784;28;20086;-89
2023/02/09 08:57:29;;;;;;;2.63;2.53;;;;;;;;;;5074225;28;20048;-88
2023/02/09 08:59:56;;;;;;;3.50;3.30;;;;;;;;;;5074141;28;20045;-88
2023/02/09 09:02:22;;;;;;;2.33;2.22;;;;;;;;;;5074094;28;20103;-88
2023/02/09 09:04:49;;;;;;;3.00;2.90;;;;;;;;;;5073913;28;20122;-89
2023/02/09 09:07:15;;;;;;;4.88;4.68;;;;;;;;;;5073162;28;20040;-89
2023/02/09 09:09:42;;;;;;;3.90;3.63;;;;;;;;;;5073664;28;20044;-89
2023/02/09 09:12:08;;;;;;;2.58;2.47;;;;;;;;;;5073760;28;20493;-89
2023/02/09 09:14:36;;;;;;;3.72;3.53;;;;;;;;;;5073742;28;20057;-89
2023/02/09 09:17:03;;;;;;;4.32;4.13;;;;;;;;;;5073926;28;20122;-89
2023/02/09 09:19:29;;;;;;;3.13;3.03;;;;;;;;;;5073130;28;20087;-91
2023/02/09 09:21:57;;;;;;;3.20;3.10;;;;;;;;;;5067511;28;20041;-92
2023/02/09 09:24:27;;;;;;;5.43;5.13;;;;;;;;;;5073601;28;20060;-91
2023/02/09 09:26:53;;;;;;;4.68;4.47;;;;;;;;;;5073694;28;20044;-91
2023/02/09 09:29:20;;;;;;;3.70;3.50;;;;;;;;;;5073091;28;20063;-92
2023/02/09 09:31:48;;;;;;;3.38;3.28;;;;;;;;;;5073752;28;20056;-91
2023/02/09 09:34:14;;;;;;;3.92;3.70;;;;;;;;;;5074101;28;20045;-92
2023/02/09 09:36:41;;;;;;;5.20;4.85;;;;;;;;;;5069602;28;20122;-91
2023/02/09 09:39:07;;;;;;;4.25;3.78;;;;;;;;;;5073135;28;20052;-93
2023/02/09 09:41:36;;;;;;;5.45;5.20;;;;;;;;;;5073713;28;20044;-93
2023/02/09 09:44:03;;;;;;;3.10;2.90;;;;;;;;;;5073720;28;20044;-93
2023/02/09 09:46:35;;;;;;;3.88;3.58;;;;;;;;;;5073388;28;20052;-92
2023/02/09 09:49:01;;;;;;;;;;;;;;;;;;5074134;28;20056;-91
2023/02/09 09:51:34;;;;;;;2.28;2.17;;;;;;;;;;5073123;28;19921;-89
2023/02/09 09:54:02;;;;;;;1.08;1.05;;;;;;;;;;5070152;28;20052;-89
2023/02/09 09:56:29;;;;;;;3.20;3.05;;;;;;;;;;5072990;28;20053;-89
2023/02/09 09:58:56;;;;;;;2.92;2.83;;;;;;;;;;5073070;28;20105;-90
2023/02/09 10:01:24;;;;;;;3.53;3.38;;;;;;;;;;5072960;28;20056;-89
2023/02/09 10:03:50;;;;;;;3.58;3.38;;;;;;;;;;5073014;28;20486;-90
2023/02/09 10:06:18;;;;;;;3.45;3.22;;;;;;;;;;5072684;28;20053;-89
2023/02/09 10:08:50;;;;;;;2.78;2.58;;;;;;;;;;5073104;28;20049;-89
2023/02/09 10:11:17;;;;;;;3.90;3.55;;;;;;;;;;5070810;28;20606;-90
2023/02/09 10:13:47;;;;;;;2.15;2.05;;;;;;;;;;5072698;28;20052;-88
2023/02/09 10:16:16;;;;;;;3.05;2.95;;;;;;;;;;5072488;28;20057;-88
2023/02/09 10:18:43;;;;;;;3.47;2.78;;;;;;;;;;5072764;28;20052;-91
2023/02/09 10:21:11;;;;;;;7.18;6.70;;;;;;;;;;5072942;28;20044;-90
2023/02/09 10:23:38;;;;;;;2.85;2.75;;;;;;;;;;5072940;28;20459;-91
2023/02/09 10:26:16;;;;;;;2.72;2.63;;;;;;;;;;5072515;28;20595;-89
2023/02/09 10:28:44;;;;;;;4.43;4.10;;;;;;;;;;5071385;28;20044;-89
2023/02/09 10:31:15;;;;;;;3.03;2.83;;;;;;;;;;5071854;28;20052;-89
2023/02/09 10:33:43;;;;;;;6.50;6.03;;;;;;;;;;5072784;28;20049;-90
2023/02/09 10:36:22;;;;;;;4.13;3.92;;;;;;;;;;5071789;28;20684;-89
2023/02/09 10:38:48;;;;;;;6.15;5.95;;;;;;;;;;5072754;28;20056;-90
2023/02/09 10:41:16;;;;;;;3.55;3.35;;;;;;;;;;5072829;28;20117;-90
2023/02/09 10:43:43;;;;;;;4.80;4.50;;;;;;;;;;5072587;28;20117;-90
2023/02/09 10:46:11;;;;;;;6.18;5.72;;;;;;;;;;5072252;28;20044;-89
2023/02/09 10:48:40;;;;;;;4.20;3.90;;;;;;;;;;5076885;28;20110;-89
2023/02/09 10:51:07;;;;;;;5.97;3.00;;;;;;;;;;5075404;28;20637;-89
2023/02/09 10:53:36;;;;;;;4.32;4.13;;;;;;;;;;5073011;28;20052;-89
2023/02/09 10:56:03;;;;;;;4.05;3.75;;;;;;;;;;5072303;28;20052;-89
2023/02/09 10:58:33;;;;;;;3.03;2.92;;;;;;;;;;5072705;28;20045;-90
2023/02/09 11:01:05;;;;;;;3.65;3.40;;;;;;;;;;5072712;28;20131;-90
2023/02/09 11:03:32;;;;;;;4.25;4.05;;;;;;;;;;5072281;28;20056;-90
2023/02/09 11:06:00;;;;;;;7.05;2.85;;;;;;;;;;5071853;28;20040;-90
2023/02/09 11:08:32;;;;;;;2.35;2.25;;;;;;;;;;5072320;28;20628;-90
2023/02/09 11:11:02;;;;;;;5.68;5.47;;;;;;;;;;5072627;28;20169;-90
2023/02/09 11:13:28;;;;;;;3.20;3.10;;;;;;;;;;5072527;28;20048;-90
2023/02/09 11:16:13;;;;;;;4.82;4.63;;;;;;;;;;5072210;28;20056;-90
2023/02/09 11:18:42;;;;;;;4.07;3.88;;;;;;;;;;5072217;28;20126;-90
2023/02/09 11:21:11;;;;;;;4.88;4.18;;;;;;;;;;5072457;28;20044;-91
2023/02/09 11:23:44;;;;;;;5.65;5.35;;;;;;;;;;5072217;28;20110;-90
2023/02/09 11:26:15;;;;;;;5.20;4.90;;;;;;;;;;5072016;28;20056;-90
2023/02/09 11:28:47;;;;;;;4.60;4.32;;;;;;;;;;5072311;28;20053;-90
2023/02/09 11:31:24;;;;;;;4.28;4.07;;;;;;;;;;5072567;28;20052;-90
2023/02/09 11:33:59;;;;;;;4.45;4.25;;;;;;;;;;5072571;28;20076;-91
2023/02/09 11:36:38;;;;;;;5.72;5.43;;;;;;;;;;5072526;28;20045;-90
2023/02/09 11:39:09;;;;;;;4.22;4.03;;;;;;;;;;5072019;28;20102;-91
2023/02/09 11:44:26;;;;;;;4.35;4.15;;;;;;;;;;5071860;28;20062;-92
2023/02/09 11:46:58;;;;;;;4.18;3.90;;;;;;;;;;5072235;28;20048;-93
2023/02/09 11:49:28;;;;;;;7.82;7.35;;;;;;;;;;5072075;28;20049;-92
2023/02/09 11:51:57;;;;;;;5.72;5.50;;;;;;;;;;5074381;28;20048;-91
2023/02/09 11:54:28;;;;;;;5.38;4.97;;;;;;;;;;5076006;28;20048;-89
2023/02/09 11:56:56;;;;;;;5.18;4.88;;;;;;;;;;5076031;28;20052;-91
2023/02/09 11:59:26;;;;;;;4.82;4.55;;;;;;;;;;5075529;28;20048;-89
2023/02/09 12:01:57;;;;;;;6.55;6.22;;;;;;;;;;5075730;28;20497;-89
2023/02/09 12:04:27;;;;;;;5.75;5.45;;;;;;;;;;5075728;28;20050;-89
2023/02/09 12:06:55;;;;;;;4.82;4.63;;;;;;;;;;5075383;28;20044;-89
2023/02/09 12:09:29;;;;;;;5.45;5.07;;;;;;;;;;5075625;28;20121;-88
2023/02/09 12:11:59;;;;;;;6.85;6.45;;;;;;;;;;5075335;28;20052;-89
2023/02/09 12:14:44;;;;;;;6.05;5.75;;;;;;;;;;5075383;28;20130;-88
2023/02/09 12:17:13;;;;;;;5.03;4.45;;;;;;;;;;5075306;28;20123;-90
2023/02/09 12:19:41;;;;;;;5.60;5.30;;;;;;;;;;5075396;28;20126;-92
2023/02/09 12:22:41;;;;;;;3.17;2.97;;;;;;;;;;5075626;28;20110;-92
2023/02/09 12:25:24;;;;;;;3.80;3.60;;;;;;;;;;5013194;28;20494;-89
2023/02/09 12:28:08;;;;;;;2.30;2.20;;;;;;;;;;5013188;28;20096;-90
2023/02/09 12:30:53;;;;;;;3.53;3.33;;;;;;;;;;5012886;28;20553;-92
2023/02/09 12:33:27;;;;;;;5.03;4.82;;;;;;;;;;5013156;28;20046;-90
2023/02/09 12:36:01;;;;;;;4.57;4.38;;;;;;;;;;5012750;28;20534;-90
2023/02/09 12:38:41;;;;;;;3.17;3.08;;;;;;;;;;5010730;28;20112;-90
2023/02/09 12:41:11;;;;;;;4.88;4.68;;;;;;;;;;5013974;28;20049;-91
2023/02/09 12:43:39;;;;;;;5.03;4.80;;;;;;;;;;5013626;28;20100;-90
2023/02/09 12:46:13;;;;;;;4.55;4.35;;;;;;;;;;5013346;28;20053;-90
2023/02/09 12:48:47;;;;;;;5.45;5.25;;;;;;;;;;5013045;28;20104;-90
2023/02/09 12:51:29;;;;;;;4.93;4.72;;;;;;;;;;5013573;28;20128;-89
2023/02/09 12:53:55;;;;;;;4.55;4.35;;;;;;;;;;5012270;28;20057;-89
2023/02/09 12:56:41;;;;;;;2.80;2.70;;;;;;;;;;5052155;28;20076;-89
2023/02/09 12:59:28;;;;;;;4.03;3.83;;;;;;;;;;5075180;28;20048;-91
2023/02/09 13:02:19;;;;;;;4.50;4.30;;;;;;;;;;5069626;28;20056;-90
2023/02/09 13:04:54;;;;;;;3.85;3.60;;;;;;;;;;5077762;28;20055;-89
2023/02/09 13:07:27;;;;;;;3.47;3.35;;;;;;;;;;5079211;28;20063;-91
2023/02/09 13:09:54;;;;;;;5.30;4.97;;;;;;;;;;5075489;28;20068;-90
2023/02/09 13:12:23;;;;;;;5.28;5.07;;;;;;;;;;5074846;28;20053;-91
2023/02/09 13:14:50;;;;;;;5.20;5.00;;;;;;;;;;5075078;28;20060;-91
2023/02/09 13:17:35;;;;;;;5.40;3.33;;;;;;;;;;5074701;28;20668;-90
2023/02/09 13:20:22;;;;;;;5.07;4.88;;;;;;;;;;5074162;28;20053;-90
2023/02/09 13:22:57;;;;;;;4.18;3.97;;;;;;;;;;5074563;28;20493;-90
2023/02/09 13:25:28;;;;;;;3.72;3.60;;;;;;;;;;5075779;28;20584;-90
2023/02/09 13:27:55;;;;;;;4.05;3.83;;;;;;;;;;5071130;28;20048;-90
2023/02/09 13:30:26;;;;;;;5.30;5.07;;;;;;;;;;5073611;28;20118;-90
2023/02/09 13:32:57;;;;;;;6.13;5.82;;;;;;;;;;5074066;28;20048;-90
2023/02/09 13:35:28;;;;;;;5.45;5.15;;;;;;;;;;5073859;28;20040;-90
2023/02/09 13:37:55;;;;;;;5.03;4.68;;;;;;;;;;5073828;28;20106;-90
2023/02/09 13:40:23;;;;;;;4.43;2.75;;;;;;;;;;5071520;28;20413;-90
2023/02/09 13:57:10;;;;;;;4.28;3.88;;;;;;;;;;5129841;27;20161;-86
2023/02/09 13:59:41;;;;;;;2.83;2.63;;;;;;;;;;5110792;28;20098;-87
2023/02/09 14:02:16;;;;;;;3.03;2.83;;;;;;;;;;5129855;28;20054;-87
2023/02/09 14:04:43;;;;;;;2.72;2.53;;;;;;;;;;5123847;27;20063;-87
2023/02/09 14:07:10;;;;;;;3.33;3.13;;;;;;;;;;5127419;28;20043;-88
2023/02/09 14:09:42;;;;;;;3.33;3.13;;;;;;;;;;5128608;28;20100;-89
2023/02/09 14:12:13;;;;;;;3.42;3.22;;;;;;;;;;5128512;27;20093;-87
2023/02/09 14:17:27;;;;;;;3.22;3.05;;;;;;;;;;5125468;28;20054;-87
2023/02/09 14:19:53;;;;;;;2.80;2.60;;;;;;;;;;5126153;28;20043;-89
2023/02/09 14:22:27;;;;;;;2.10;1.90;;;;;;;;;;5126978;27;20084;-88
2023/02/09 14:24:53;;;;;;;5.38;4.30;;;;;;;;;;5123451;27;20122;-89
2023/02/09 14:27:23;;;;;;;2.05;1.95;;;;;;;;;;5128373;28;20054;-87
2023/02/09 14:29:50;;;;;;;2.83;2.17;;;;;;;;;;5125828;28;20039;-87
2023/02/09 14:32:24;;;;;;;4.15;3.85;;;;;;;;;;5128594;27;20047;-89
2023/02/09 14:34:51;;;;;;;2.67;2.47;;;;;;;;;;5128885;28;20043;-89
2023/02/09 14:37:32;;;;;;;1.88;1.77;;;;;;;;;;5137666;27;20539;-89
2023/02/09 14:40:00;;;;;;;1.88;1.77;;;;;;;;;;5124319;27;20058;-88
2023/02/09 14:42:29;;;;;;;1.60;1.50;;;;;;;;;;5120376;28;20130;-88
2023/02/09 14:44:58;;;;;;;1.40;1.30;;;;;;;;;;5119812;28;20055;-88
2023/02/09 14:47:29;;;;;;;2.75;2.50;;;;;;;;;;5130933;28;20073;-88
2023/02/09 14:49:56;;;;;;;3.88;3.55;;;;;;;;;;5130759;28;20138;-88
2023/02/09 14:52:27;;;;;;;2.03;1.90;;;;;;;;;;5128929;28;20043;-88
2023/02/09 14:54:53;;;;;;;;;;;;;;;;;;5131922;28;20126;-89
2023/02/09 14:57:20;;;;;;;3.20;2.92;;;;;;;;;;5131466;28;19919;-88
2023/02/09 14:59:49;;;;;;;2.20;2.10;;;;;;;;;;5114909;28;20063;-89
2023/02/09 15:02:18;;;;;;;3.75;3.55;;;;;;;;;;5115805;28;20118;-87
2023/02/09 15:04:47;;;;;;;4.88;2.38;;;;;;;;;;5116060;28;20043;-89
2023/02/09 15:07:16;;;;;;;4.68;3.42;;;;;;;;;;5101342;28;20139;-88
2023/02/09 15:09:43;;;;;;;2.88;2.65;;;;;;;;;;5110738;28;20446;-88
2023/02/09 15:12:16;;;;;;;2.25;2.10;;;;;;;;;;5118532;28;20049;-87
2023/02/09 15:14:46;;;;;;;3.28;3.10;;;;;;;;;;5114522;28;20059;-89
2023/02/09 15:17:16;;;;;;;2.13;1.95;;;;;;;;;;5117018;28;20048;-88
2023/02/09 15:19:42;;;;;;;1.73;1.63;;;;;;;;;;5117271;28;20052;-88
2023/02/09 15:22:12;;;;;;;2.30;2.20;;;;;;;;;;5117918;28;20043;-90
2023/02/09 15:24:39;;;;;;;2.03;1.88;;;;;;;;;;5119030;28;20051;-88
2023/02/09 15:27:05;;;;;;;2.72;2.63;;;;;;;;;;5118430;28;20052;-89
2023/02/09 15:29:33;;;;;;;2.92;1.90;;;;;;;;;;5116706;28;20052;-88
2023/02/09 15:31:59;;;;;;;2.28;2.17;;;;;;;;;;5118720;28;20040;-88
2023/02/09 15:34:27;;;;;;;1.80;1.70;;;;;;;;;;5117182;28;20051;-88
2023/02/09 15:36:54;;;;;;;2.97;2.75;;;;;;;;;;5114717;28;20097;-88
2023/02/09 15:39:22;;;;;;;2.78;2.58;;;;;;;;;;5114154;28;20052;-86
2023/02/09 15:50:07;;;;;;;;;;;;;;;;;;5113437;28;20050;-88
2023/02/09 15:52:43;;;;;;;2.35;2.25;;;;;;;;;;5108300;28;19927;-89